sensor_id;sensor_type;location;lat;lon;timestamp;temperature;humidity
15997;DHT22;8103;51.340;12.326;2023-04-25T00:00:15;8.90;99.90
15997;DHT22;8103;51.340;12.326;2023-04-25T00:02:43;8.90;99.90
15997;DHT22;8103;51.340;12.326;2023-04-25T00:05:10;8.80;99.90
15997;DHT22;8103;51.340;12.326;2023-04-25T00:07:37;8.80;99.90
15997;DHT22;8103;51.340;12.326;2023-04-25T00:10:05;8.80;99.90
15997;DHT22;8103;51.340;12.326;2023-04-25T00:12:33;8.70;99.90
15997;DHT22;8103;51.340;12.326;2023-04-25T00:15:00;8.60;99.90
15997;DHT22;8103;51.340;12.326;2023-04-25T00:17:27;8.30;99.90
15997;DHT22;8103;51.340;12.326;2023-04-25T00:19:54;8.40;99.90
15997;DHT22;8103;51.340;12.326;2023-04-25T00:22:22;8.40;99.90
15997;DHT22;8103;51.340;12.326;2023-04-25T00:24:52;8.40;99.90
15997;DHT22;8103;51.340;12.326;2023-04-25T00:27:22;8.40;99.90
15997;DHT22;8103;51.340;12.326;2023-04-25T00:29:49;8.20;99.90
15997;DHT22;8103;51.340;12.326;2023-04-25T00:32:19;8.30;99.90
15997;DHT22;8103;51.340;12.326;2023-04-25T00:34:46;8.60;99.90
15997;DHT22;8103;51.340;12.326;2023-04-25T00:37:13;8.10;99.90
15997;DHT22;8103;51.340;12.326;2023-04-25T00:39:40;8.20;99.90
15997;DHT22;8103;51.340;12.326;2023-04-25T00:42:11;8.00;99.90
15997;DHT22;8103;51.340;12.326;2023-04-25T00:44:39;8.00;99.90
15997;DHT22;8103;51.340;12.326;2023-04-25T00:47:09;7.90;99.90
15997;DHT22;8103;51.340;12.326;2023-04-25T00:49:37;7.80;99.90
15997;DHT22;8103;51.340;12.326;2023-04-25T00:52:04;7.80;99.90
15997;DHT22;8103;51.340;12.326;2023-04-25T00:54:31;7.70;99.90
15997;DHT22;8103;51.340;12.326;2023-04-25T00:56:58;7.70;99.90
15997;DHT22;8103;51.340;12.326;2023-04-25T00:59:28;7.70;99.90
15997;DHT22;8103;51.340;12.326;2023-04-25T01:01:58;7.70;99.90
15997;DHT22;8103;51.340;12.326;2023-04-25T01:04:27;7.70;99.90
15997;DHT22;8103;51.340;12.326;2023-04-25T01:06:55;7.70;99.90
15997;DHT22;8103;51.340;12.326;2023-04-25T01:09:22;7.70;99.90
15997;DHT22;8103;51.340;12.326;2023-04-25T01:11:50;7.70;99.90
15997;DHT22;8103;51.340;12.326;2023-04-25T01:14:17;7.80;99.90
15997;DHT22;8103;51.340;12.326;2023-04-25T01:16:44;7.80;99.90
15997;DHT22;8103;51.340;12.326;2023-04-25T01:19:11;7.80;99.90
15997;DHT22;8103;51.340;12.326;2023-04-25T01:21:46;7.80;99.90
15997;DHT22;8103;51.340;12.326;2023-04-25T01:24:17;7.80;99.90
15997;DHT22;8103;51.340;12.326;2023-04-25T01:26:44;7.80;99.90
15997;DHT22;8103;51.340;12.326;2023-04-25T01:29:19;7.80;99.90
15997;DHT22;8103;51.340;12.326;2023-04-25T01:31:46;7.70;99.90
15997;DHT22;8103;51.340;12.326;2023-04-25T01:34:13;7.80;99.90
15997;DHT22;8103;51.340;12.326;2023-04-25T01:36:41;7.80;99.90
15997;DHT22;8103;51.340;12.326;2023-04-25T01:39:08;7.70;99.90
15997;DHT22;8103;51.340;12.326;2023-04-25T01:41:35;7.60;99.90
15997;DHT22;8103;51.340;12.326;2023-04-25T01:44:03;7.70;99.90
15997;DHT22;8103;51.340;12.326;2023-04-25T01:46:30;7.70;99.90
15997;DHT22;8103;51.340;12.326;2023-04-25T01:48:57;7.70;99.90
15997;DHT22;8103;51.340;12.326;2023-04-25T01:51:24;7.70;99.90
15997;DHT22;8103;51.340;12.326;2023-04-25T01:53:51;7.60;99.90
15997;DHT22;8103;51.340;12.326;2023-04-25T01:56:19;7.60;99.90
15997;DHT22;8103;51.340;12.326;2023-04-25T01:58:46;7.60;99.90
15997;DHT22;8103;51.340;12.326;2023-04-25T02:01:13;7.50;99.90
15997;DHT22;8103;51.340;12.326;2023-04-25T02:03:40;7.50;99.90
15997;DHT22;8103;51.340;12.326;2023-04-25T02:06:07;7.50;99.90
15997;DHT22;8103;51.340;12.326;2023-04-25T02:08:34;7.50;99.90
15997;DHT22;8103;51.340;12.326;2023-04-25T02:11:01;7.50;99.90
15997;DHT22;8103;51.340;12.326;2023-04-25T02:13:29;7.50;99.90
15997;DHT22;8103;51.340;12.326;2023-04-25T02:15:57;7.50;99.90
15997;DHT22;8103;51.340;12.326;2023-04-25T02:18:24;7.50;99.90
15997;DHT22;8103;51.340;12.326;2023-04-25T02:20:52;7.50;99.90
15997;DHT22;8103;51.340;12.326;2023-04-25T02:23:19;7.40;99.90
15997;DHT22;8103;51.340;12.326;2023-04-25T02:25:46;7.50;99.90
15997;DHT22;8103;51.340;12.326;2023-04-25T02:28:13;7.50;99.90
15997;DHT22;8103;51.340;12.326;2023-04-25T02:30:40;7.50;99.90
15997;DHT22;8103;51.340;12.326;2023-04-25T02:33:06;7.50;99.90
15997;DHT22;8103;51.340;12.326;2023-04-25T02:35:33;7.50;99.90
15997;DHT22;8103;51.340;12.326;2023-04-25T02:38:00;7.40;99.90
15997;DHT22;8103;51.340;12.326;2023-04-25T02:40:27;7.40;99.90
15997;DHT22;8103;51.340;12.326;2023-04-25T02:42:55;7.40;99.90
15997;DHT22;8103;51.340;12.326;2023-04-25T02:45:22;7.30;99.90
15997;DHT22;8103;51.340;12.326;2023-04-25T02:47:49;7.30;99.90
15997;DHT22;8103;51.340;12.326;2023-04-25T02:50:16;7.30;99.90
15997;DHT22;8103;51.340;12.326;2023-04-25T02:52:44;7.20;99.90
15997;DHT22;8103;51.340;12.326;2023-04-25T02:55:13;7.20;99.90
15997;DHT22;8103;51.340;12.326;2023-04-25T02:57:40;7.10;99.90
15997;DHT22;8103;51.340;12.326;2023-04-25T03:00:07;7.20;99.90
15997;DHT22;8103;51.340;12.326;2023-04-25T03:02:34;7.10;99.90
15997;DHT22;8103;51.340;12.326;2023-04-25T03:05:01;7.10;99.90
15997;DHT22;8103;51.340;12.326;2023-04-25T03:07:29;7.10;99.90
15997;DHT22;8103;51.340;12.326;2023-04-25T03:09:56;7.00;99.90
15997;DHT22;8103;51.340;12.326;2023-04-25T03:12:23;7.00;99.90
15997;DHT22;8103;51.340;12.326;2023-04-25T03:14:50;7.00;99.90
15997;DHT22;8103;51.340;12.326;2023-04-25T03:17:17;7.00;99.90
15997;DHT22;8103;51.340;12.326;2023-04-25T03:19:44;7.00;99.90
15997;DHT22;8103;51.340;12.326;2023-04-25T03:22:11;7.00;99.90
15997;DHT22;8103;51.340;12.326;2023-04-25T03:24:38;6.90;99.90
15997;DHT22;8103;51.340;12.326;2023-04-25T03:27:05;6.90;99.90
15997;DHT22;8103;51.340;12.326;2023-04-25T03:29:31;6.90;99.90
15997;DHT22;8103;51.340;12.326;2023-04-25T03:31:58;6.80;99.90
15997;DHT22;8103;51.340;12.326;2023-04-25T03:34:25;6.90;99.90
15997;DHT22;8103;51.340;12.326;2023-04-25T03:36:52;6.80;99.90
15997;DHT22;8103;51.340;12.326;2023-04-25T03:39:19;6.80;99.90
15997;DHT22;8103;51.340;12.326;2023-04-25T03:41:47;6.80;99.90
15997;DHT22;8103;51.340;12.326;2023-04-25T03:44:14;6.80;99.90
15997;DHT22;8103;51.340;12.326;2023-04-25T03:46:41;6.80;99.90
15997;DHT22;8103;51.340;12.326;2023-04-25T03:49:08;6.80;99.90
15997;DHT22;8103;51.340;12.326;2023-04-25T03:51:35;6.70;99.90
15997;DHT22;8103;51.340;12.326;2023-04-25T03:54:02;6.70;99.90
15997;DHT22;8103;51.340;12.326;2023-04-25T03:56:29;6.60;99.90
15997;DHT22;8103;51.340;12.326;2023-04-25T03:58:57;6.60;99.90
15997;DHT22;8103;51.340;12.326;2023-04-25T04:01:26;6.60;99.90
15997;DHT22;8103;51.340;12.326;2023-04-25T04:03:53;6.70;99.90
15997;DHT22;8103;51.340;12.326;2023-04-25T04:06:20;6.60;99.90
15997;DHT22;8103;51.340;12.326;2023-04-25T04:08:47;6.60;99.90
15997;DHT22;8103;51.340;12.326;2023-04-25T04:11:14;6.60;99.90
15997;DHT22;8103;51.340;12.326;2023-04-25T04:13:42;6.60;99.90
15997;DHT22;8103;51.340;12.326;2023-04-25T04:16:09;6.60;99.90
15997;DHT22;8103;51.340;12.326;2023-04-25T04:18:37;6.60;99.90
15997;DHT22;8103;51.340;12.326;2023-04-25T04:21:03;6.60;99.90
15997;DHT22;8103;51.340;12.326;2023-04-25T04:23:30;6.70;99.90
15997;DHT22;8103;51.340;12.326;2023-04-25T04:25:57;6.80;99.90
15997;DHT22;8103;51.340;12.326;2023-04-25T04:28:24;6.70;99.90
15997;DHT22;8103;51.340;12.326;2023-04-25T04:30:53;6.70;99.90
15997;DHT22;8103;51.340;12.326;2023-04-25T04:33:22;6.70;99.90
15997;DHT22;8103;51.340;12.326;2023-04-25T04:35:52;6.80;99.90
15997;DHT22;8103;51.340;12.326;2023-04-25T04:38:20;6.80;99.90
15997;DHT22;8103;51.340;12.326;2023-04-25T04:40:48;6.80;99.90
15997;DHT22;8103;51.340;12.326;2023-04-25T04:43:15;6.80;99.90
15997;DHT22;8103;51.340;12.326;2023-04-25T04:45:43;6.80;99.90
15997;DHT22;8103;51.340;12.326;2023-04-25T04:48:12;6.80;99.90
15997;DHT22;8103;51.340;12.326;2023-04-25T04:50:40;6.80;99.90
15997;DHT22;8103;51.340;12.326;2023-04-25T04:53:11;6.90;99.90
15997;DHT22;8103;51.340;12.326;2023-04-25T04:55:38;6.90;99.90
15997;DHT22;8103;51.340;12.326;2023-04-25T04:58:08;6.90;99.90
15997;DHT22;8103;51.340;12.326;2023-04-25T05:00:35;7.00;99.90
15997;DHT22;8103;51.340;12.326;2023-04-25T05:03:02;7.00;99.90
15997;DHT22;8103;51.340;12.326;2023-04-25T05:05:32;7.00;99.90
15997;DHT22;8103;51.340;12.326;2023-04-25T05:07:59;7.10;99.90
15997;DHT22;8103;51.340;12.326;2023-04-25T05:10:26;7.10;99.90
15997;DHT22;8103;51.340;12.326;2023-04-25T05:12:53;7.20;99.90
15997;DHT22;8103;51.340;12.326;2023-04-25T05:15:20;7.20;99.90
15997;DHT22;8103;51.340;12.326;2023-04-25T05:17:47;7.30;99.90
15997;DHT22;8103;51.340;12.326;2023-04-25T05:20:14;7.30;99.90
15997;DHT22;8103;51.340;12.326;2023-04-25T05:22:41;7.40;99.90
15997;DHT22;8103;51.340;12.326;2023-04-25T05:25:09;7.30;99.90
15997;DHT22;8103;51.340;12.326;2023-04-25T05:27:37;7.40;99.90
15997;DHT22;8103;51.340;12.326;2023-04-25T05:30:05;7.40;99.90
15997;DHT22;8103;51.340;12.326;2023-04-25T05:32:33;7.50;99.90
15997;DHT22;8103;51.340;12.326;2023-04-25T05:39:06;7.60;99.90
15997;DHT22;8103;51.340;12.326;2023-04-25T05:41:34;7.70;99.90
15997;DHT22;8103;51.340;12.326;2023-04-25T05:44:01;7.80;99.90
15997;DHT22;8103;51.340;12.326;2023-04-25T05:46:30;7.90;99.90
15997;DHT22;8103;51.340;12.326;2023-04-25T05:48:59;7.90;99.90
15997;DHT22;8103;51.340;12.326;2023-04-25T05:51:26;8.30;99.90
15997;DHT22;8103;51.340;12.326;2023-04-25T05:53:54;8.90;99.90
15997;DHT22;8103;51.340;12.326;2023-04-25T05:56:21;9.30;99.90
15997;DHT22;8103;51.340;12.326;2023-04-25T05:58:48;9.80;99.90
15997;DHT22;8103;51.340;12.326;2023-04-25T06:01:15;10.10;99.90
15997;DHT22;8103;51.340;12.326;2023-04-25T06:03:42;10.40;99.90
15997;DHT22;8103;51.340;12.326;2023-04-25T06:06:10;10.60;99.90
15997;DHT22;8103;51.340;12.326;2023-04-25T06:08:38;10.80;99.90
15997;DHT22;8103;51.340;12.326;2023-04-25T06:11:05;10.70;99.90
15997;DHT22;8103;51.340;12.326;2023-04-25T06:13:32;10.40;99.90
15997;DHT22;8103;51.340;12.326;2023-04-25T06:15:59;10.10;99.90
15997;DHT22;8103;51.340;12.326;2023-04-25T06:18:28;9.90;99.90
15997;DHT22;8103;51.340;12.326;2023-04-25T06:20:55;9.60;99.90
15997;DHT22;8103;51.340;12.326;2023-04-25T06:23:23;9.60;99.90
15997;DHT22;8103;51.340;12.326;2023-04-25T06:25:49;9.50;99.90
15997;DHT22;8103;51.340;12.326;2023-04-25T06:28:16;9.50;99.90
15997;DHT22;8103;51.340;12.326;2023-04-25T06:30:43;9.70;99.90
15997;DHT22;8103;51.340;12.326;2023-04-25T06:33:10;9.70;99.90
15997;DHT22;8103;51.340;12.326;2023-04-25T06:35:37;9.70;99.90
15997;DHT22;8103;51.340;12.326;2023-04-25T06:38:04;9.80;99.90
15997;DHT22;8103;51.340;12.326;2023-04-25T06:40:31;9.90;99.90
15997;DHT22;8103;51.340;12.326;2023-04-25T06:42:58;9.90;99.90
15997;DHT22;8103;51.340;12.326;2023-04-25T06:45:26;9.80;99.90
15997;DHT22;8103;51.340;12.326;2023-04-25T06:47:53;10.00;99.90
15997;DHT22;8103;51.340;12.326;2023-04-25T06:50:20;10.00;99.90
15997;DHT22;8103;51.340;12.326;2023-04-25T06:52:47;10.10;99.90
15997;DHT22;8103;51.340;12.326;2023-04-25T06:55:14;10.30;99.90
15997;DHT22;8103;51.340;12.326;2023-04-25T06:57:41;10.50;99.90
15997;DHT22;8103;51.340;12.326;2023-04-25T07:00:09;10.50;99.90
15997;DHT22;8103;51.340;12.326;2023-04-25T07:02:37;10.70;99.90
15997;DHT22;8103;51.340;12.326;2023-04-25T07:05:05;10.70;99.90
15997;DHT22;8103;51.340;12.326;2023-04-25T07:07:32;10.60;99.90
15997;DHT22;8103;51.340;12.326;2023-04-25T07:09:59;10.50;99.90
15997;DHT22;8103;51.340;12.326;2023-04-25T07:12:25;10.40;99.90
15997;DHT22;8103;51.340;12.326;2023-04-25T07:14:52;10.40;99.90
15997;DHT22;8103;51.340;12.326;2023-04-25T07:17:19;10.40;99.90
15997;DHT22;8103;51.340;12.326;2023-04-25T07:19:46;10.30;99.90
15997;DHT22;8103;51.340;12.326;2023-04-25T07:22:13;10.30;99.90
15997;DHT22;8103;51.340;12.326;2023-04-25T07:24:40;10.20;99.90
15997;DHT22;8103;51.340;12.326;2023-04-25T07:27:07;10.20;99.90
15997;DHT22;8103;51.340;12.326;2023-04-25T07:29:34;10.20;99.90
15997;DHT22;8103;51.340;12.326;2023-04-25T07:32:03;10.30;99.90
15997;DHT22;8103;51.340;12.326;2023-04-25T07:34:34;10.30;99.90
15997;DHT22;8103;51.340;12.326;2023-04-25T07:37:06;10.30;99.90
15997;DHT22;8103;51.340;12.326;2023-04-25T07:39:32;10.30;99.90
15997;DHT22;8103;51.340;12.326;2023-04-25T07:41:59;10.20;99.90
15997;DHT22;8103;51.340;12.326;2023-04-25T07:44:26;10.20;99.90
15997;DHT22;8103;51.340;12.326;2023-04-25T07:46:53;10.10;99.90
15997;DHT22;8103;51.340;12.326;2023-04-25T07:49:20;10.00;99.90
15997;DHT22;8103;51.340;12.326;2023-04-25T07:51:47;9.90;99.90
15997;DHT22;8103;51.340;12.326;2023-04-25T07:54:15;9.70;99.90
15997;DHT22;8103;51.340;12.326;2023-04-25T07:56:42;9.60;99.90
15997;DHT22;8103;51.340;12.326;2023-04-25T07:59:17;9.70;99.90
15997;DHT22;8103;51.340;12.326;2023-04-25T08:01:45;9.60;99.90
15997;DHT22;8103;51.340;12.326;2023-04-25T08:04:12;9.60;99.90
15997;DHT22;8103;51.340;12.326;2023-04-25T08:06:39;9.50;99.90
15997;DHT22;8103;51.340;12.326;2023-04-25T08:09:07;9.40;99.90
15997;DHT22;8103;51.340;12.326;2023-04-25T08:11:36;9.50;99.90
15997;DHT22;8103;51.340;12.326;2023-04-25T08:14:04;9.70;99.90
15997;DHT22;8103;51.340;12.326;2023-04-25T08:16:31;9.70;99.90
15997;DHT22;8103;51.340;12.326;2023-04-25T08:18:59;9.90;99.90
15997;DHT22;8103;51.340;12.326;2023-04-25T08:21:26;10.00;99.70
15997;DHT22;8103;51.340;12.326;2023-04-25T08:23:54;10.20;98.50
15997;DHT22;8103;51.340;12.326;2023-04-25T08:26:27;10.40;97.60
15997;DHT22;8103;51.340;12.326;2023-04-25T08:28:55;10.60;97.00
15997;DHT22;8103;51.340;12.326;2023-04-25T08:31:22;10.80;95.80
15997;DHT22;8103;51.340;12.326;2023-04-25T08:33:49;11.00;95.20
15997;DHT22;8103;51.340;12.326;2023-04-25T08:36:18;11.10;94.00
15997;DHT22;8103;51.340;12.326;2023-04-25T08:39:00;11.00;93.70
15997;DHT22;8103;51.340;12.326;2023-04-25T08:41:28;11.00;93.60
15997;DHT22;8103;51.340;12.326;2023-04-25T08:43:56;10.90;93.80
15997;DHT22;8103;51.340;12.326;2023-04-25T08:46:24;10.80;94.20
15997;DHT22;8103;51.340;12.326;2023-04-25T08:48:53;10.80;94.40
15997;DHT22;8103;51.340;12.326;2023-04-25T08:51:27;10.90;94.60
15997;DHT22;8103;51.340;12.326;2023-04-25T08:54:12;10.90;94.30
15997;DHT22;8103;51.340;12.326;2023-04-25T08:56:44;10.80;94.30
15997;DHT22;8103;51.340;12.326;2023-04-25T08:59:14;10.80;94.40
15997;DHT22;8103;51.340;12.326;2023-04-25T09:01:41;10.80;94.20
15997;DHT22;8103;51.340;12.326;2023-04-25T09:04:08;11.10;93.80
15997;DHT22;8103;51.340;12.326;2023-04-25T09:06:35;11.30;93.40
15997;DHT22;8103;51.340;12.326;2023-04-25T09:09:06;11.70;94.20
15997;DHT22;8103;51.340;12.326;2023-04-25T09:11:36;11.90;93.20
15997;DHT22;8103;51.340;12.326;2023-04-25T09:19:24;12.50;94.00
15997;DHT22;8103;51.340;12.326;2023-04-25T09:22:06;12.60;93.80
15997;DHT22;8103;51.340;12.326;2023-04-25T09:24:44;12.60;93.00
15997;DHT22;8103;51.340;12.326;2023-04-25T09:27:18;12.70;92.70
15997;DHT22;8103;51.340;12.326;2023-04-25T09:29:57;12.80;92.10
15997;DHT22;8103;51.340;12.326;2023-04-25T09:32:27;12.60;91.70
15997;DHT22;8103;51.340;12.326;2023-04-25T09:34:56;12.50;91.90
15997;DHT22;8103;51.340;12.326;2023-04-25T09:37:29;12.40;92.20
15997;DHT22;8103;51.340;12.326;2023-04-25T09:39:58;12.20;92.60
15997;DHT22;8103;51.340;12.326;2023-04-25T09:42:29;12.00;93.30
15997;DHT22;8103;51.340;12.326;2023-04-25T09:45:00;11.80;94.20
15997;DHT22;8103;51.340;12.326;2023-04-25T09:47:37;11.60;94.90
15997;DHT22;8103;51.340;12.326;2023-04-25T09:50:16;11.60;95.60
15997;DHT22;8103;51.340;12.326;2023-04-25T09:52:45;11.70;95.40
15997;DHT22;8103;51.340;12.326;2023-04-25T09:55:12;11.70;95.70
15997;DHT22;8103;51.340;12.326;2023-04-25T09:57:39;11.90;96.00
15997;DHT22;8103;51.340;12.326;2023-04-25T10:00:11;12.00;95.10
15997;DHT22;8103;51.340;12.326;2023-04-25T10:02:42;12.10;94.80
15997;DHT22;8103;51.340;12.326;2023-04-25T10:05:12;12.20;94.50
15997;DHT22;8103;51.340;12.326;2023-04-25T10:07:40;12.30;94.20
15997;DHT22;8103;51.340;12.326;2023-04-25T10:10:08;12.20;94.10
15997;DHT22;8103;51.340;12.326;2023-04-25T10:12:39;12.10;94.00
15997;DHT22;8103;51.340;12.326;2023-04-25T10:15:08;11.80;94.00
15997;DHT22;8103;51.340;12.326;2023-04-25T10:17:37;11.70;94.20
15997;DHT22;8103;51.340;12.326;2023-04-25T10:20:06;11.50;94.40
15997;DHT22;8103;51.340;12.326;2023-04-25T10:22:41;11.30;94.90
15997;DHT22;8103;51.340;12.326;2023-04-25T10:25:10;11.30;95.10
15997;DHT22;8103;51.340;12.326;2023-04-25T10:27:39;11.40;95.10
15997;DHT22;8103;51.340;12.326;2023-04-25T10:30:13;11.60;94.90
15997;DHT22;8103;51.340;12.326;2023-04-25T10:32:42;11.80;94.40
15997;DHT22;8103;51.340;12.326;2023-04-25T10:35:15;12.00;93.80
15997;DHT22;8103;51.340;12.326;2023-04-25T10:38:03;12.00;93.80
15997;DHT22;8103;51.340;12.326;2023-04-25T10:40:33;11.90;93.70
15997;DHT22;8103;51.340;12.326;2023-04-25T10:49:03;11.80;93.90
15997;DHT22;8103;51.340;12.326;2023-04-25T10:51:34;11.80;94.00
15997;DHT22;8103;51.340;12.326;2023-04-25T10:54:22;11.70;94.10
15997;DHT22;8103;51.340;12.326;2023-04-25T10:56:52;11.70;94.30
15997;DHT22;8103;51.340;12.326;2023-04-25T10:59:19;11.70;94.50
15997;DHT22;8103;51.340;12.326;2023-04-25T11:01:51;11.70;94.50
15997;DHT22;8103;51.340;12.326;2023-04-25T11:04:24;11.80;94.50
15997;DHT22;8103;51.340;12.326;2023-04-25T11:10:03;11.70;94.50
15997;DHT22;8103;51.340;12.326;2023-04-25T11:12:33;11.70;94.50
15997;DHT22;8103;51.340;12.326;2023-04-25T11:15:03;11.50;94.20
15997;DHT22;8103;51.340;12.326;2023-04-25T11:17:31;11.40;94.40
15997;DHT22;8103;51.340;12.326;2023-04-25T11:19:59;11.30;94.60
15997;DHT22;8103;51.340;12.326;2023-04-25T11:22:27;11.20;94.80
15997;DHT22;8103;51.340;12.326;2023-04-25T11:24:55;11.00;95.00
15997;DHT22;8103;51.340;12.326;2023-04-25T11:27:22;11.00;95.10
15997;DHT22;8103;51.340;12.326;2023-04-25T11:29:51;10.80;95.00
15997;DHT22;8103;51.340;12.326;2023-04-25T11:32:18;10.70;95.00
15997;DHT22;8103;51.340;12.326;2023-04-25T11:34:47;10.60;95.00
15997;DHT22;8103;51.340;12.326;2023-04-25T11:37:15;10.70;95.00
15997;DHT22;8103;51.340;12.326;2023-04-25T11:39:45;10.80;94.70
15997;DHT22;8103;51.340;12.326;2023-04-25T11:42:15;10.80;93.40
15997;DHT22;8103;51.340;12.326;2023-04-25T11:44:42;10.90;92.90
15997;DHT22;8103;51.340;12.326;2023-04-25T11:47:10;11.10;92.70
15997;DHT22;8103;51.340;12.326;2023-04-25T11:49:37;11.20;92.20
15997;DHT22;8103;51.340;12.326;2023-04-25T11:52:06;11.30;91.40
15997;DHT22;8103;51.340;12.326;2023-04-25T11:54:38;11.40;90.80
15997;DHT22;8103;51.340;12.326;2023-04-25T11:57:05;11.40;90.30
15997;DHT22;8103;51.340;12.326;2023-04-25T11:59:31;11.40;90.30
15997;DHT22;8103;51.340;12.326;2023-04-25T12:01:59;11.50;90.40
15997;DHT22;8103;51.340;12.326;2023-04-25T12:04:30;11.40;90.20
15997;DHT22;8103;51.340;12.326;2023-04-25T12:06:59;11.30;90.10
15997;DHT22;8103;51.340;12.326;2023-04-25T12:09:30;11.40;90.20
15997;DHT22;8103;51.340;12.326;2023-04-25T12:11:59;11.50;90.00
15997;DHT22;8103;51.340;12.326;2023-04-25T12:14:31;11.40;90.00
15997;DHT22;8103;51.340;12.326;2023-04-25T12:17:03;11.60;90.10
15997;DHT22;8103;51.340;12.326;2023-04-25T12:19:33;12.00;89.20
15997;DHT22;8103;51.340;12.326;2023-04-25T12:26:08;12.70;84.80
15997;DHT22;8103;51.340;12.326;2023-04-25T12:32:37;12.20;84.90
15997;DHT22;8103;51.340;12.326;2023-04-25T12:35:05;11.80;86.90
15997;DHT22;8103;51.340;12.326;2023-04-25T12:37:33;11.60;88.20
15997;DHT22;8103;51.340;12.326;2023-04-25T12:40:00;11.40;88.90
15997;DHT22;8103;51.340;12.326;2023-04-25T12:42:27;11.30;89.90
15997;DHT22;8103;51.340;12.326;2023-04-25T12:44:55;11.30;88.90
15997;DHT22;8103;51.340;12.326;2023-04-25T12:47:22;11.30;88.20
15997;DHT22;8103;51.340;12.326;2023-04-25T12:49:51;11.30;89.10
15997;DHT22;8103;51.340;12.326;2023-04-25T12:52:18;11.20;88.20
15997;DHT22;8103;51.340;12.326;2023-04-25T12:54:46;11.10;86.70
15997;DHT22;8103;51.340;12.326;2023-04-25T12:57:13;11.00;85.00
15997;DHT22;8103;51.340;12.326;2023-04-25T12:59:40;10.80;84.10
15997;DHT22;8103;51.340;12.326;2023-04-25T13:02:06;10.80;83.80
15997;DHT22;8103;51.340;12.326;2023-04-25T13:04:33;10.70;84.00
15997;DHT22;8103;51.340;12.326;2023-04-25T13:07:01;10.70;83.70
15997;DHT22;8103;51.340;12.326;2023-04-25T13:09:28;10.70;83.60
15997;DHT22;8103;51.340;12.326;2023-04-25T13:11:54;10.70;83.30
15997;DHT22;8103;51.340;12.326;2023-04-25T13:14:23;10.80;82.60
15997;DHT22;8103;51.340;12.326;2023-04-25T13:16:50;10.80;81.90
15997;DHT22;8103;51.340;12.326;2023-04-25T13:19:17;10.80;81.40
15997;DHT22;8103;51.340;12.326;2023-04-25T13:21:44;10.80;80.90
15997;DHT22;8103;51.340;12.326;2023-04-25T13:24:12;10.90;80.60
15997;DHT22;8103;51.340;12.326;2023-04-25T13:26:39;11.10;80.40
15997;DHT22;8103;51.340;12.326;2023-04-25T13:29:06;11.70;80.20
15997;DHT22;8103;51.340;12.326;2023-04-25T13:31:33;12.70;76.80
15997;DHT22;8103;51.340;12.326;2023-04-25T13:34:00;13.90;53.30
15997;DHT22;8103;51.340;12.326;2023-04-25T13:36:26;14.60;52.00
15997;DHT22;8103;51.340;12.326;2023-04-25T13:38:54;14.70;52.20
15997;DHT22;8103;51.340;12.326;2023-04-25T13:41:21;16.10;50.50
15997;DHT22;8103;51.340;12.326;2023-04-25T13:43:48;17.10;46.20
15997;DHT22;8103;51.340;12.326;2023-04-25T13:46:15;17.50;44.10
15997;DHT22;8103;51.340;12.326;2023-04-25T13:49:01;18.40;42.10
15997;DHT22;8103;51.340;12.326;2023-04-25T13:51:37;19.60;40.60
15997;DHT22;8103;51.340;12.326;2023-04-25T13:54:04;21.50;37.30
15997;DHT22;8103;51.340;12.326;2023-04-25T13:56:31;22.30;35.30
15997;DHT22;8103;51.340;12.326;2023-04-25T13:58:58;22.20;34.70
15997;DHT22;8103;51.340;12.326;2023-04-25T14:01:25;21.80;35.40
15997;DHT22;8103;51.340;12.326;2023-04-25T14:03:54;21.20;35.20
15997;DHT22;8103;51.340;12.326;2023-04-25T14:06:21;19.80;35.40
15997;DHT22;8103;51.340;12.326;2023-04-25T14:08:50;18.30;37.70
15997;DHT22;8103;51.340;12.326;2023-04-25T14:11:17;17.00;40.20
15997;DHT22;8103;51.340;12.326;2023-04-25T14:13:45;16.10;40.90
15997;DHT22;8103;51.340;12.326;2023-04-25T14:16:12;15.30;41.90
15997;DHT22;8103;51.340;12.326;2023-04-25T14:18:42;14.50;42.40
15997;DHT22;8103;51.340;12.326;2023-04-25T14:21:09;14.00;43.20
15997;DHT22;8103;51.340;12.326;2023-04-25T14:23:36;13.60;43.90
15997;DHT22;8103;51.340;12.326;2023-04-25T14:26:03;13.30;44.80
15997;DHT22;8103;51.340;12.326;2023-04-25T14:28:30;13.00;45.30
15997;DHT22;8103;51.340;12.326;2023-04-25T14:30:57;12.90;46.20
15997;DHT22;8103;51.340;12.326;2023-04-25T14:33:24;12.80;47.00
15997;DHT22;8103;51.340;12.326;2023-04-25T14:35:52;12.70;47.50
15997;DHT22;8103;51.340;12.326;2023-04-25T14:38:19;12.80;47.90
15997;DHT22;8103;51.340;12.326;2023-04-25T14:40:51;12.90;48.00
15997;DHT22;8103;51.340;12.326;2023-04-25T14:43:18;13.00;47.00
15997;DHT22;8103;51.340;12.326;2023-04-25T14:45:48;12.90;46.70
15997;DHT22;8103;51.340;12.326;2023-04-25T14:48:15;13.00;46.50
15997;DHT22;8103;51.340;12.326;2023-04-25T14:50:44;12.90;45.70
15997;DHT22;8103;51.340;12.326;2023-04-25T14:53:12;13.10;45.90
15997;DHT22;8103;51.340;12.326;2023-04-25T14:55:41;13.10;45.40
15997;DHT22;8103;51.340;12.326;2023-04-25T14:58:11;13.00;45.50
15997;DHT22;8103;51.340;12.326;2023-04-25T15:00:38;12.80;45.90
15997;DHT22;8103;51.340;12.326;2023-04-25T15:03:05;12.50;47.30
15997;DHT22;8103;51.340;12.326;2023-04-25T15:05:34;12.30;49.10
15997;DHT22;8103;51.340;12.326;2023-04-25T15:08:02;12.30;49.90
15997;DHT22;8103;51.340;12.326;2023-04-25T15:10:29;12.20;50.50
15997;DHT22;8103;51.340;12.326;2023-04-25T15:12:56;12.10;50.90
15997;DHT22;8103;51.340;12.326;2023-04-25T15:15:23;12.00;51.40
15997;DHT22;8103;51.340;12.326;2023-04-25T15:17:52;12.00;51.90
15997;DHT22;8103;51.340;12.326;2023-04-25T15:20:26;12.10;52.10
15997;DHT22;8103;51.340;12.326;2023-04-25T15:22:54;12.20;51.80
15997;DHT22;8103;51.340;12.326;2023-04-25T15:25:21;12.10;51.70
15997;DHT22;8103;51.340;12.326;2023-04-25T15:27:48;12.10;51.80
15997;DHT22;8103;51.340;12.326;2023-04-25T15:30:18;12.00;52.10
15997;DHT22;8103;51.340;12.326;2023-04-25T15:32:46;12.20;52.20
15997;DHT22;8103;51.340;12.326;2023-04-25T15:35:14;12.20;51.50
15997;DHT22;8103;51.340;12.326;2023-04-25T15:37:44;12.20;51.60
15997;DHT22;8103;51.340;12.326;2023-04-25T15:40:20;12.20;51.50
15997;DHT22;8103;51.340;12.326;2023-04-25T15:42:49;12.20;51.60
15997;DHT22;8103;51.340;12.326;2023-04-25T15:45:19;12.10;51.40
15997;DHT22;8103;51.340;12.326;2023-04-25T15:47:50;12.00;51.80
15997;DHT22;8103;51.340;12.326;2023-04-25T15:50:18;11.90;52.20
15997;DHT22;8103;51.340;12.326;2023-04-25T15:52:45;11.90;52.30
15997;DHT22;8103;51.340;12.326;2023-04-25T15:55:15;11.90;52.30
15997;DHT22;8103;51.340;12.326;2023-04-25T15:57:43;11.90;52.40
15997;DHT22;8103;51.340;12.326;2023-04-25T16:00:10;11.90;52.60
15997;DHT22;8103;51.340;12.326;2023-04-25T16:02:42;11.80;52.30
15997;DHT22;8103;51.340;12.326;2023-04-25T16:05:10;11.70;52.70
15997;DHT22;8103;51.340;12.326;2023-04-25T16:07:41;11.60;52.80
15997;DHT22;8103;51.340;12.326;2023-04-25T16:10:10;11.60;53.00